createdAt,value
2018-07-24T00:00:11.787Z,1006.32
2018-07-24T00:01:11.726Z,1006.33
2018-07-24T00:02:11.852Z,1006.35
2018-07-24T00:03:11.851Z,1006.35
2018-07-24T00:04:11.846Z,1006.33
2018-07-24T00:05:11.723Z,1006.35
2018-07-24T00:06:11.787Z,1006.34
2018-07-24T00:07:11.755Z,1006.33
2018-07-24T00:08:11.795Z,1006.31
2018-07-24T00:09:11.794Z,1006.32
2018-07-24T00:10:11.733Z,1006.29
2018-07-24T00:11:11.731Z,1006.29
2018-07-24T00:12:11.766Z,1006.29
2018-07-24T00:13:11.734Z,1006.29
2018-07-24T00:14:11.819Z,1006.28
2018-07-24T00:15:11.737Z,1006.32
2018-07-24T00:16:11.826Z,1006.28
2018-07-24T00:17:11.750Z,1006.31
2018-07-24T00:18:11.825Z,1006.30
2018-07-24T00:19:11.788Z,1006.26
2018-07-24T00:20:11.862Z,1006.29
2018-07-24T00:21:11.873Z,1006.28
2018-07-24T00:22:11.754Z,1006.31
2018-07-24T00:23:11.792Z,1006.31
2018-07-24T00:24:11.837Z,1006.26
2018-07-24T00:25:11.791Z,1006.30
2018-07-24T00:26:11.903Z,1006.31
2018-07-24T00:27:11.836Z,1006.31
2018-07-24T00:28:11.873Z,1006.30
2018-07-24T00:29:11.830Z,1006.25
2018-07-24T00:30:11.864Z,1006.26
2018-07-24T00:31:11.760Z,1006.25
2018-07-24T00:32:11.923Z,1006.26
2018-07-24T00:33:11.860Z,1006.28
2018-07-24T00:34:11.872Z,1006.28
2018-07-24T00:35:11.861Z,1006.28
2018-07-24T00:36:11.785Z,1006.31
2018-07-24T00:37:11.844Z,1006.27
2018-07-24T00:38:11.849Z,1006.29
2018-07-24T00:39:11.887Z,1006.30
2018-07-24T00:40:11.820Z,1006.34
2018-07-24T00:41:11.848Z,1006.28
2018-07-24T00:42:11.815Z,1006.31
2018-07-24T00:43:11.885Z,1006.31
2018-07-24T00:44:11.854Z,1006.30
2018-07-24T00:45:11.848Z,1006.30
2018-07-24T00:46:11.857Z,1006.30
2018-07-24T00:47:11.792Z,1006.32
2018-07-24T00:48:11.880Z,1006.32
2018-07-24T00:49:11.881Z,1006.32
2018-07-24T00:50:11.834Z,1006.31
2018-07-24T00:51:11.791Z,1006.29
2018-07-24T00:52:11.844Z,1006.34
2018-07-24T00:53:11.756Z,1006.31
2018-07-24T00:54:11.847Z,1006.32
2018-07-24T00:55:11.816Z,1006.33
2018-07-24T00:56:11.847Z,1006.34
2018-07-24T00:57:11.797Z,1006.35
2018-07-24T00:58:11.780Z,1006.30
2018-07-24T00:59:11.834Z,1006.33
2018-07-24T01:00:11.785Z,1006.31
2018-07-24T01:01:11.851Z,1006.31
2018-07-24T01:02:11.856Z,1006.29
2018-07-24T01:03:11.799Z,1006.30
2018-07-24T01:04:11.854Z,1006.26
2018-07-24T01:05:11.920Z,1006.29
2018-07-24T01:06:11.767Z,1006.23
2018-07-24T01:07:11.771Z,1006.26
2018-07-24T01:08:11.795Z,1006.23
2018-07-24T01:09:11.731Z,1006.26
2018-07-24T01:10:11.811Z,1006.21
2018-07-24T01:11:11.787Z,1006.21
2018-07-24T01:12:11.872Z,1006.23
2018-07-24T01:13:11.836Z,1006.23
2018-07-24T01:14:11.840Z,1006.21
2018-07-24T01:15:11.899Z,1006.20
2018-07-24T01:16:11.869Z,1006.23
2018-07-24T01:17:11.812Z,1006.19
2018-07-24T01:18:11.890Z,1006.19
2018-07-24T01:19:11.815Z,1006.19
2018-07-24T01:20:11.899Z,1006.22
2018-07-24T01:21:11.899Z,1006.21
2018-07-24T01:22:11.879Z,1006.21
2018-07-24T01:23:11.874Z,1006.21
2018-07-24T01:24:11.935Z,1006.19
2018-07-24T01:25:11.884Z,1006.23
2018-07-24T01:26:11.880Z,1006.21
2018-07-24T01:27:11.819Z,1006.18
2018-07-24T01:28:11.800Z,1006.19
2018-07-24T01:29:11.858Z,1006.22
2018-07-24T01:30:11.816Z,1006.19
2018-07-24T01:31:11.881Z,1006.19
2018-07-24T01:32:11.813Z,1006.18
2018-07-24T01:33:11.885Z,1006.19
2018-07-24T01:34:11.817Z,1006.19
2018-07-24T01:35:11.819Z,1006.18
2018-07-24T01:36:11.886Z,1006.21
2018-07-24T01:37:11.886Z,1006.18
2018-07-24T01:38:11.820Z,1006.16
2018-07-24T01:39:11.885Z,1006.19
2018-07-24T01:40:11.894Z,1006.14
2018-07-24T01:41:11.922Z,1006.15
2018-07-24T01:42:11.831Z,1006.18
2018-07-24T01:43:11.858Z,1006.16
2018-07-24T01:44:11.810Z,1006.14
2018-07-24T01:45:11.925Z,1006.14
2018-07-24T01:46:11.921Z,1006.18
2018-07-24T01:47:11.794Z,1006.16
2018-07-24T01:48:11.861Z,1006.17
2018-07-24T01:49:11.801Z,1006.18
2018-07-24T01:50:11.935Z,1006.22
2018-07-24T01:51:11.871Z,1006.21
2018-07-24T01:52:11.829Z,1006.17
2018-07-24T01:53:11.901Z,1006.19
2018-07-24T01:54:11.878Z,1006.14
2018-07-24T01:55:11.878Z,1006.16
2018-07-24T01:56:11.896Z,1006.14
2018-07-24T01:57:11.930Z,1006.17
2018-07-24T01:58:11.804Z,1006.17
2018-07-24T01:59:11.934Z,1006.18
2018-07-24T02:00:11.883Z,1006.19
2018-07-24T02:01:11.840Z,1006.25
2018-07-24T02:02:11.918Z,1006.18
2018-07-24T02:03:11.903Z,1006.23
2018-07-24T02:04:11.928Z,1006.19
2018-07-24T02:05:11.871Z,1006.26
2018-07-24T02:06:11.884Z,1006.28
2018-07-24T02:07:11.905Z,1006.23
2018-07-24T02:08:11.873Z,1006.22
2018-07-24T02:09:11.874Z,1006.21
2018-07-24T02:10:11.937Z,1006.22
2018-07-24T02:11:11.911Z,1006.22
2018-07-24T02:12:11.913Z,1006.23
2018-07-24T02:13:11.915Z,1006.20
2018-07-24T02:14:11.847Z,1006.19
2018-07-24T02:15:11.846Z,1006.25
2018-07-24T02:16:11.912Z,1006.21
2018-07-24T02:17:11.911Z,1006.20
2018-07-24T02:18:11.914Z,1006.19
2018-07-24T02:19:11.855Z,1006.12
2018-07-24T02:20:11.852Z,1006.19
2018-07-24T02:21:11.876Z,1006.13
2018-07-24T02:22:11.922Z,1006.12
2018-07-24T02:23:11.837Z,1006.16
2018-07-24T02:24:11.934Z,1006.13
2018-07-24T02:25:11.917Z,1006.10
2018-07-24T02:26:11.842Z,1006.13
2018-07-24T02:27:11.886Z,1006.12
2018-07-24T02:28:11.948Z,1006.09
2018-07-24T02:29:11.923Z,1006.09
2018-07-24T02:30:11.825Z,1006.12
2018-07-24T02:31:11.954Z,1006.11
2018-07-24T02:32:11.938Z,1006.08
2018-07-24T02:33:11.963Z,1006.08
2018-07-24T02:34:11.925Z,1006.11
2018-07-24T02:35:11.896Z,1006.07
2018-07-24T02:36:11.928Z,1006.06
2018-07-24T02:37:11.893Z,1006.05
2018-07-24T02:38:11.868Z,1006.08
2018-07-24T02:39:11.903Z,1006.10
2018-07-24T02:40:11.956Z,1006.06
2018-07-24T02:41:11.912Z,1006.07
2018-07-24T02:42:11.850Z,1006.10
2018-07-24T02:43:11.833Z,1006.10
2018-07-24T02:44:11.901Z,1006.09
2018-07-24T02:45:11.962Z,1006.05
2018-07-24T02:46:11.840Z,1006.06
2018-07-24T02:47:11.938Z,1006.06
2018-07-24T02:48:11.940Z,1006.04
2018-07-24T02:49:11.967Z,1006.09
2018-07-24T02:50:11.970Z,1006.05
2018-07-24T02:51:11.854Z,1006.10
2018-07-24T02:52:11.820Z,1006.10
2018-07-24T02:53:11.813Z,1006.07
2018-07-24T02:54:11.937Z,1006.06
2018-07-24T02:55:11.858Z,1006.06
2018-07-24T02:56:11.937Z,1006.08
2018-07-24T02:57:11.871Z,1006.04
2018-07-24T02:58:11.934Z,1006.06
2018-07-24T02:59:11.940Z,1006.07
2018-07-24T03:00:11.935Z,1006.11
2018-07-24T03:01:11.947Z,1006.08
2018-07-24T03:02:11.876Z,1006.06
2018-07-24T03:03:11.950Z,1006.06
2018-07-24T03:04:11.947Z,1006.04
2018-07-24T03:05:11.914Z,1006.05
2018-07-24T03:06:11.884Z,1006.04
2018-07-24T03:07:11.962Z,1006.07
2018-07-24T03:08:11.882Z,1006.05
2018-07-24T03:09:11.903Z,1006.07
2018-07-24T03:10:11.881Z,1006.09
2018-07-24T03:11:11.947Z,1006.12
2018-07-24T03:12:11.872Z,1006.13
2018-07-24T03:13:11.944Z,1006.10
2018-07-24T03:14:11.855Z,1006.08
2018-07-24T03:15:11.827Z,1006.11
2018-07-24T03:16:11.991Z,1006.09
2018-07-24T03:17:11.983Z,1006.05
2018-07-24T03:18:11.839Z,1006.09
2018-07-24T03:19:11.861Z,1006.11
2018-07-24T03:20:11.861Z,1006.06
2018-07-24T03:21:11.879Z,1006.07
2018-07-24T03:22:11.986Z,1006.06
2018-07-24T03:23:11.895Z,1006.06
2018-07-24T03:24:11.964Z,1006.05
2018-07-24T03:25:11.898Z,1006.00
2018-07-24T03:26:11.991Z,1006.02
2018-07-24T03:27:11.964Z,1005.99
2018-07-24T03:28:11.979Z,1006.00
2018-07-24T03:29:11.863Z,1005.99
2018-07-24T03:30:11.941Z,1006.01
2018-07-24T03:31:11.956Z,1006.01
2018-07-24T03:32:11.870Z,1005.98
2018-07-24T03:33:11.957Z,1006.03
2018-07-24T03:34:11.873Z,1006.00
2018-07-24T03:35:11.889Z,1006.02
2018-07-24T03:36:11.908Z,1005.98
2018-07-24T03:37:11.846Z,1006.01
2018-07-24T03:38:11.916Z,1006.00
2018-07-24T03:39:11.964Z,1006.02
2018-07-24T03:40:11.964Z,1006.00
2018-07-24T03:41:11.895Z,1006.03
2018-07-24T03:42:11.892Z,1006.00
2018-07-24T03:43:11.965Z,1006.01
2018-07-24T03:44:11.966Z,1006.06
2018-07-24T03:45:12.010Z,1006.02
2018-07-24T03:46:11.970Z,1006.10
2018-07-24T03:47:11.877Z,1006.08
2018-07-24T03:48:11.970Z,1006.08
2018-07-24T03:49:11.970Z,1006.09
2018-07-24T03:50:11.852Z,1006.06
2018-07-24T03:51:11.914Z,1006.08
2018-07-24T03:52:11.977Z,1006.08
2018-07-24T03:53:11.975Z,1006.10
2018-07-24T03:54:11.917Z,1006.11
2018-07-24T03:55:11.983Z,1006.04
2018-07-24T03:56:11.978Z,1006.09
2018-07-24T03:57:12.000Z,1006.08
2018-07-24T03:58:11.913Z,1006.09
2018-07-24T03:59:11.980Z,1006.09
2018-07-24T04:00:12.007Z,1006.12
2018-07-24T04:01:11.956Z,1006.10
2018-07-24T04:02:11.914Z,1006.08
2018-07-24T04:03:11.887Z,1006.12
2018-07-24T04:04:11.985Z,1006.08
2018-07-24T04:05:11.952Z,1006.09
2018-07-24T04:06:12.011Z,1006.10
2018-07-24T04:07:11.890Z,1006.10
2018-07-24T04:08:11.935Z,1006.12
2018-07-24T04:09:11.926Z,1006.06
2018-07-24T04:10:11.895Z,1006.11
2018-07-24T04:11:11.915Z,1006.06
2018-07-24T04:12:11.988Z,1006.12
2018-07-24T04:13:11.970Z,1006.12
2018-07-24T04:14:11.956Z,1006.16
2018-07-24T04:15:12.009Z,1006.11
2018-07-24T04:16:11.959Z,1006.11
2018-07-24T04:17:11.951Z,1006.17
2018-07-24T04:18:11.997Z,1006.10
2018-07-24T04:19:11.969Z,1006.14
2018-07-24T04:20:11.961Z,1006.12
2018-07-24T04:21:11.936Z,1006.15
2018-07-24T04:22:11.936Z,1006.14
2018-07-24T04:23:11.999Z,1006.13
2018-07-24T04:24:12.001Z,1006.12
2018-07-24T04:25:11.932Z,1006.13
2018-07-24T04:26:12.001Z,1006.12
2018-07-24T04:27:12.010Z,1006.08
2018-07-24T04:28:12.005Z,1006.11
2018-07-24T04:29:11.934Z,1006.13
2018-07-24T04:30:11.937Z,1006.13
2018-07-24T04:31:12.061Z,1006.16
2018-07-24T04:32:11.910Z,1006.18
2018-07-24T04:33:11.924Z,1006.17
2018-07-24T04:34:12.036Z,1006.18
2018-07-24T04:35:12.006Z,1006.16
2018-07-24T04:36:12.046Z,1006.17
2018-07-24T04:37:11.908Z,1006.17
2018-07-24T04:38:12.031Z,1006.12
2018-07-24T04:39:11.985Z,1006.14
2018-07-24T04:40:12.074Z,1006.13
2018-07-24T04:41:12.013Z,1006.16
2018-07-24T04:42:11.942Z,1006.17
2018-07-24T04:43:11.947Z,1006.18
2018-07-24T04:44:11.946Z,1006.18
2018-07-24T04:45:12.044Z,1006.20
2018-07-24T04:46:11.956Z,1006.20
2018-07-24T04:47:11.904Z,1006.22
2018-07-24T04:48:11.947Z,1006.21
2018-07-24T04:49:11.957Z,1006.19
2018-07-24T04:50:12.022Z,1006.15
2018-07-24T04:51:11.992Z,1006.18
2018-07-24T04:52:11.923Z,1006.18
2018-07-24T04:53:12.035Z,1006.20
2018-07-24T04:54:11.984Z,1006.20
2018-07-24T04:55:11.924Z,1006.21
2018-07-24T04:56:12.020Z,1006.24
2018-07-24T04:57:11.943Z,1006.22
2018-07-24T04:58:11.931Z,1006.22
2018-07-24T04:59:12.022Z,1006.23
2018-07-24T05:00:12.026Z,1006.17
2018-07-24T05:01:12.025Z,1006.20
2018-07-24T05:02:11.999Z,1006.19
2018-07-24T05:03:12.046Z,1006.19
2018-07-24T05:04:12.051Z,1006.23
2018-07-24T05:05:12.029Z,1006.25
2018-07-24T05:06:12.057Z,1006.24
2018-07-24T05:07:12.062Z,1006.24
2018-07-24T05:08:11.989Z,1006.25
2018-07-24T05:09:12.056Z,1006.26
2018-07-24T05:10:12.070Z,1006.26
2018-07-24T05:11:11.936Z,1006.27
2018-07-24T05:12:12.011Z,1006.27
2018-07-24T05:13:12.001Z,1006.29
2018-07-24T05:14:12.014Z,1006.27
2018-07-24T05:15:12.013Z,1006.29
2018-07-24T05:16:11.999Z,1006.30
2018-07-24T05:17:12.072Z,1006.28
2018-07-24T05:18:12.073Z,1006.29
2018-07-24T05:19:12.058Z,1006.20
2018-07-24T05:20:12.078Z,1006.21
2018-07-24T05:21:12.057Z,1006.24
2018-07-24T05:22:11.945Z,1006.23
2018-07-24T05:23:12.081Z,1006.21
2018-07-24T05:24:11.945Z,1006.23
2018-07-24T05:25:12.020Z,1006.19
2018-07-24T05:26:12.068Z,1006.16
2018-07-24T05:27:12.077Z,1006.21
2018-07-24T05:28:12.003Z,1006.20
2018-07-24T05:29:12.024Z,1006.25
2018-07-24T05:30:12.064Z,1006.24
2018-07-24T05:31:12.025Z,1006.23
2018-07-24T05:32:12.006Z,1006.21
2018-07-24T05:33:12.039Z,1006.22
2018-07-24T05:34:11.946Z,1006.19
2018-07-24T05:35:12.072Z,1006.19
2018-07-24T05:36:12.070Z,1006.18
2018-07-24T05:37:11.950Z,1006.22
2018-07-24T05:38:12.016Z,1006.17
2018-07-24T05:39:12.036Z,1006.23
2018-07-24T05:40:12.010Z,1006.21
2018-07-24T05:41:11.982Z,1006.23
2018-07-24T05:42:12.007Z,1006.21
2018-07-24T05:43:11.964Z,1006.21
2018-07-24T05:44:11.963Z,1006.27
2018-07-24T05:45:11.949Z,1006.21
2018-07-24T05:46:12.034Z,1006.23
2018-07-24T05:47:12.056Z,1006.21
2018-07-24T05:48:12.046Z,1006.25
2018-07-24T05:49:11.958Z,1006.21
2018-07-24T05:50:12.013Z,1006.20
2018-07-24T05:51:11.979Z,1006.16
2018-07-24T05:52:12.096Z,1006.19
2018-07-24T05:53:12.040Z,1006.20
2018-07-24T05:54:12.096Z,1006.17
2018-07-24T05:55:12.032Z,1006.17
2018-07-24T05:56:12.083Z,1006.19
2018-07-24T05:57:12.088Z,1006.18
2018-07-24T05:58:12.044Z,1006.20
2018-07-24T05:59:12.183Z,1006.21
2018-07-24T06:00:12.064Z,1006.26
2018-07-24T06:01:12.000Z,1006.22
2018-07-24T06:02:12.001Z,1006.24
2018-07-24T06:03:12.071Z,1006.23
2018-07-24T06:04:12.068Z,1006.24
2018-07-24T06:05:12.009Z,1006.24
2018-07-24T06:06:12.003Z,1006.22
2018-07-24T06:07:12.058Z,1006.20
2018-07-24T06:08:12.004Z,1006.20
2018-07-24T06:09:12.070Z,1006.21
2018-07-24T06:10:11.967Z,1006.21
2018-07-24T06:11:12.010Z,1006.17
2018-07-24T06:12:12.087Z,1006.16
2018-07-24T06:13:12.026Z,1006.20
2018-07-24T06:14:12.072Z,1006.18
2018-07-24T06:15:12.075Z,1006.17
2018-07-24T06:16:11.986Z,1006.14
2018-07-24T06:17:12.072Z,1006.19
2018-07-24T06:18:11.958Z,1006.13
2018-07-24T06:19:11.987Z,1006.13
2018-07-24T06:20:11.987Z,1006.11
2018-07-24T06:21:12.069Z,1006.12
2018-07-24T06:22:12.066Z,1006.07
2018-07-24T06:23:12.006Z,1006.08
2018-07-24T06:24:12.025Z,1006.07
2018-07-24T06:25:12.078Z,1006.12
2018-07-24T06:26:12.040Z,1006.11
2018-07-24T06:27:12.003Z,1006.08
2018-07-24T06:28:12.051Z,1006.10
2018-07-24T06:29:12.059Z,1006.05
2018-07-24T06:30:12.087Z,1006.06
2018-07-24T06:31:12.083Z,1006.03
2018-07-24T06:32:11.992Z,1006.08
2018-07-24T06:33:12.124Z,1006.07
2018-07-24T06:34:12.127Z,1006.07
2018-07-24T06:35:12.076Z,1006.11
2018-07-24T06:36:12.069Z,1006.12
2018-07-24T06:37:12.152Z,1006.11
2018-07-24T06:38:12.093Z,1006.12
2018-07-24T06:39:12.091Z,1006.10
2018-07-24T06:40:12.015Z,1006.10
2018-07-24T06:41:11.989Z,1006.11
2018-07-24T06:42:12.014Z,1006.11
2018-07-24T06:43:12.008Z,1006.11
2018-07-24T06:44:12.147Z,1006.10
2018-07-24T06:45:12.089Z,1006.12
2018-07-24T06:46:12.008Z,1006.07
2018-07-24T06:47:11.966Z,1006.06
2018-07-24T06:48:11.965Z,1006.12
2018-07-24T06:49:12.038Z,1006.10
2018-07-24T06:50:12.008Z,1006.09
2018-07-24T06:51:12.069Z,1006.09
2018-07-24T06:52:12.096Z,1006.08
2018-07-24T06:53:12.089Z,1006.06
2018-07-24T06:54:12.097Z,1006.01
2018-07-24T06:55:12.103Z,1006.03
2018-07-24T06:56:12.007Z,1005.98
2018-07-24T06:57:12.051Z,1006.01
2018-07-24T06:58:12.090Z,1006.02
2018-07-24T06:59:12.089Z,1006.03
2018-07-24T07:00:12.046Z,1006.01
2018-07-24T07:01:12.041Z,1005.97
2018-07-24T07:02:12.208Z,1005.99
2018-07-24T07:03:12.054Z,1006.02
2018-07-24T07:04:12.111Z,1005.98
2018-07-24T07:05:12.161Z,1006.01
2018-07-24T07:06:12.111Z,1005.98
2018-07-24T07:07:12.045Z,1006.00
2018-07-24T07:08:12.062Z,1006.03
2018-07-24T07:09:11.996Z,1006.01
2018-07-24T07:10:12.068Z,1006.02
2018-07-24T07:11:12.143Z,1006.02
2018-07-24T07:12:12.071Z,1005.98
2018-07-24T07:13:12.207Z,1006.03
2018-07-24T07:14:12.121Z,1006.01
2018-07-24T07:15:12.113Z,1005.96
2018-07-24T07:16:12.056Z,1005.97
2018-07-24T07:17:12.088Z,1005.95
2018-07-24T07:18:12.156Z,1005.93
2018-07-24T07:19:12.137Z,1005.88
2018-07-24T07:20:12.080Z,1005.89
2018-07-24T07:21:12.056Z,1005.88
2018-07-24T07:22:12.048Z,1005.85
2018-07-24T07:23:12.122Z,1005.84
2018-07-24T07:24:12.102Z,1005.83
2018-07-24T07:25:12.120Z,1005.86
2018-07-24T07:26:12.492Z,1005.84
2018-07-24T07:27:12.105Z,1005.84
2018-07-24T07:28:12.152Z,1005.86
2018-07-24T07:29:12.164Z,1005.87
2018-07-24T07:30:12.106Z,1005.81
2018-07-24T07:31:12.128Z,1005.82
2018-07-24T07:32:12.206Z,1005.80
2018-07-24T07:33:12.167Z,1005.76
2018-07-24T07:34:12.131Z,1005.75
2018-07-24T07:35:12.063Z,1005.74
2018-07-24T07:36:12.130Z,1005.75
2018-07-24T07:37:12.068Z,1005.73
2018-07-24T07:38:12.063Z,1005.74
2018-07-24T07:39:12.177Z,1005.74
2018-07-24T07:40:12.072Z,1005.77
2018-07-24T07:41:12.136Z,1005.73
2018-07-24T07:42:12.068Z,1005.76
2018-07-24T07:43:12.068Z,1005.71
2018-07-24T07:44:12.136Z,1005.69
2018-07-24T07:45:12.160Z,1005.70
2018-07-24T07:46:12.136Z,1005.71
2018-07-24T07:47:12.076Z,1005.70
2018-07-24T07:48:12.134Z,1005.67
2018-07-24T07:49:12.069Z,1005.68
2018-07-24T07:50:12.075Z,1005.65
2018-07-24T07:51:12.163Z,1005.67
2018-07-24T07:52:12.107Z,1005.68
2018-07-24T07:53:12.166Z,1005.64
2018-07-24T07:54:12.051Z,1005.63
2018-07-24T07:55:12.163Z,1005.65
2018-07-24T07:56:12.102Z,1005.63
2018-07-24T07:57:12.050Z,1005.66
2018-07-24T07:58:12.148Z,1005.66
2018-07-24T07:59:12.109Z,1005.65
2018-07-24T08:00:12.165Z,1005.63
2018-07-24T08:01:12.101Z,1005.63
2018-07-24T08:02:12.069Z,1005.60
2018-07-24T08:03:12.119Z,1005.59
2018-07-24T08:04:12.101Z,1005.61
2018-07-24T08:05:12.167Z,1005.55
2018-07-24T08:06:12.127Z,1005.55
2018-07-24T08:07:12.111Z,1005.59
2018-07-24T08:08:12.180Z,1005.51
2018-07-24T08:09:12.131Z,1005.57
2018-07-24T08:10:12.181Z,1005.55
2018-07-24T08:11:12.182Z,1005.54
2018-07-24T08:12:12.088Z,1005.54
2018-07-24T08:13:12.156Z,1005.55
2018-07-24T08:14:12.140Z,1005.54
2018-07-24T08:15:12.158Z,1005.50
2018-07-24T08:16:12.091Z,1005.50
2018-07-24T08:17:12.196Z,1005.47
2018-07-24T08:18:12.158Z,1005.43
2018-07-24T08:19:12.177Z,1005.44
2018-07-24T08:20:12.097Z,1005.45
2018-07-24T08:21:12.096Z,1005.42
2018-07-24T08:22:12.172Z,1005.44
2018-07-24T08:23:12.163Z,1005.41
2018-07-24T08:24:12.181Z,1005.43
2018-07-24T08:25:12.186Z,1005.43
2018-07-24T08:26:12.197Z,1005.40
2018-07-24T08:27:12.195Z,1005.37
2018-07-24T08:28:12.153Z,1005.37
2018-07-24T08:29:12.148Z,1005.37
2018-07-24T08:30:12.202Z,1005.40
2018-07-24T08:31:12.212Z,1005.36
2018-07-24T08:32:12.167Z,1005.34
2018-07-24T08:33:12.152Z,1005.33
2018-07-24T08:34:12.143Z,1005.33
2018-07-24T08:35:12.200Z,1005.33
2018-07-24T08:36:12.203Z,1005.36
2018-07-24T08:37:12.093Z,1005.33
2018-07-24T08:38:12.207Z,1005.29
2018-07-24T08:39:12.110Z,1005.33
2018-07-24T08:40:12.199Z,1005.30
2018-07-24T08:41:12.196Z,1005.33
2018-07-24T08:42:12.197Z,1005.33
2018-07-24T08:43:12.214Z,1005.30
2018-07-24T08:44:12.082Z,1005.28
2018-07-24T08:45:12.186Z,1005.29
2018-07-24T08:46:12.198Z,1005.26
2018-07-24T08:47:12.217Z,1005.28
2018-07-24T08:48:12.202Z,1005.29
2018-07-24T08:49:12.190Z,1005.27
2018-07-24T08:50:12.198Z,1005.26
2018-07-24T08:51:12.211Z,1005.28
2018-07-24T08:52:12.120Z,1005.25
2018-07-24T08:53:12.302Z,1005.28
2018-07-24T08:54:12.385Z,1005.26
2018-07-24T08:55:12.336Z,1005.25
2018-07-24T08:56:12.120Z,1005.29
2018-07-24T08:57:12.123Z,1005.22
2018-07-24T08:58:12.185Z,1005.24
2018-07-24T08:59:12.120Z,1005.23
2018-07-24T09:00:12.185Z,1005.23
2018-07-24T09:01:12.187Z,1005.17
2018-07-24T09:02:12.205Z,1005.15
2018-07-24T09:03:12.236Z,1005.17
2018-07-24T09:04:12.247Z,1005.17
2018-07-24T09:05:12.154Z,1005.20
2018-07-24T09:06:12.212Z,1005.17
2018-07-24T09:07:12.196Z,1005.16
2018-07-24T09:08:12.183Z,1005.12
2018-07-24T09:09:12.197Z,1005.12
2018-07-24T09:10:12.290Z,1005.10
2018-07-24T09:11:12.213Z,1005.11
2018-07-24T09:12:12.131Z,1005.09
2018-07-24T09:13:12.165Z,1005.11
2018-07-24T09:14:12.197Z,1005.09
2018-07-24T09:15:12.134Z,1005.07
2018-07-24T09:16:12.131Z,1005.12
2018-07-24T09:17:12.237Z,1005.11
2018-07-24T09:18:12.197Z,1005.14
2018-07-24T09:19:12.200Z,1005.11
2018-07-24T09:20:12.198Z,1005.14
2018-07-24T09:21:12.202Z,1005.11
2018-07-24T09:22:12.201Z,1005.13
2018-07-24T09:23:12.137Z,1005.07
2018-07-24T09:24:12.136Z,1005.11
2018-07-24T09:25:12.234Z,1005.09
2018-07-24T09:26:12.136Z,1005.09
2018-07-24T09:27:12.208Z,1005.08
2018-07-24T09:28:12.141Z,1005.07
2018-07-24T09:29:12.141Z,1005.06
2018-07-24T09:30:12.138Z,1005.01
2018-07-24T09:31:12.207Z,1005.02
2018-07-24T09:32:12.205Z,1005.03
2018-07-24T09:33:12.209Z,1005.04
2018-07-24T09:34:12.140Z,1005.05
2018-07-24T09:35:12.214Z,1005.05
2018-07-24T09:36:12.147Z,1005.00
2018-07-24T09:37:12.213Z,1004.99
2018-07-24T09:38:12.212Z,1004.98
2018-07-24T09:39:12.148Z,1005.01
2018-07-24T09:40:12.157Z,1004.99
2018-07-24T09:41:12.148Z,1005.02
2018-07-24T09:42:12.124Z,1005.00
2018-07-24T09:43:12.258Z,1004.99
2018-07-24T09:44:12.124Z,1005.01
2018-07-24T09:45:12.121Z,1005.00
2018-07-24T09:46:12.158Z,1004.99
2018-07-24T09:47:12.257Z,1004.98
2018-07-24T09:48:12.174Z,1004.96
2018-07-24T09:49:12.261Z,1004.93
2018-07-24T09:50:12.251Z,1004.96
2018-07-24T09:51:12.193Z,1004.95
2018-07-24T09:52:12.244Z,1005.00
2018-07-24T09:53:12.181Z,1004.97
2018-07-24T09:54:12.175Z,1004.97
2018-07-24T09:55:12.254Z,1004.98
2018-07-24T09:56:12.253Z,1004.95
2018-07-24T09:57:12.255Z,1005.00
2018-07-24T09:58:12.204Z,1004.93
2018-07-24T09:59:12.291Z,1004.90
2018-07-24T10:00:12.242Z,1004.89
2018-07-24T10:01:12.228Z,1004.88
2018-07-24T10:02:12.133Z,1004.87
2018-07-24T10:03:12.180Z,1004.87
2018-07-24T10:04:12.158Z,1004.89
2018-07-24T10:05:12.166Z,1004.87
2018-07-24T10:06:12.225Z,1004.84
2018-07-24T10:07:12.217Z,1004.84
2018-07-24T10:08:12.164Z,1004.84
2018-07-24T10:09:12.184Z,1004.84
2018-07-24T10:10:12.165Z,1004.82
2018-07-24T10:11:12.224Z,1004.85
2018-07-24T10:12:12.249Z,1004.81
2018-07-24T10:13:12.327Z,1004.84
2018-07-24T10:14:12.107Z,1004.80
2018-07-24T10:15:12.138Z,1004.87
2018-07-24T10:16:12.169Z,1004.86
2018-07-24T10:17:12.221Z,1004.81
2018-07-24T10:18:12.151Z,1004.81
2018-07-24T10:19:12.228Z,1004.77
2018-07-24T10:20:12.113Z,1004.83
2018-07-24T10:21:12.215Z,1004.85
2018-07-24T10:22:12.184Z,1004.83
2018-07-24T10:23:12.198Z,1004.82
2018-07-24T10:24:12.131Z,1004.80
2018-07-24T10:25:12.234Z,1004.83
2018-07-24T10:26:12.233Z,1004.81
2018-07-24T10:27:12.242Z,1004.78
2018-07-24T10:28:12.169Z,1004.76
2018-07-24T10:29:12.183Z,1004.75
2018-07-24T10:30:12.252Z,1004.71
2018-07-24T10:31:12.248Z,1004.72
2018-07-24T10:32:12.208Z,1004.69
2018-07-24T10:33:12.151Z,1004.66
2018-07-24T10:34:12.219Z,1004.62
2018-07-24T10:35:12.210Z,1004.63
2018-07-24T10:36:12.214Z,1004.63
2018-07-24T10:37:12.267Z,1004.62
2018-07-24T10:38:12.207Z,1004.62
2018-07-24T10:39:12.274Z,1004.58
2018-07-24T10:40:12.165Z,1004.60
2018-07-24T10:41:12.222Z,1004.55
2018-07-24T10:42:12.160Z,1004.56
2018-07-24T10:43:12.366Z,1004.54
2018-07-24T10:44:12.329Z,1004.55
2018-07-24T10:45:12.216Z,1004.50
2018-07-24T10:46:12.296Z,1004.53
2018-07-24T10:47:12.261Z,1004.49
2018-07-24T10:48:12.262Z,1004.46
2018-07-24T10:49:12.293Z,1004.45
2018-07-24T10:50:12.258Z,1004.46
2018-07-24T10:51:12.263Z,1004.46
2018-07-24T10:52:12.285Z,1004.40
2018-07-24T10:53:12.237Z,1004.41
2018-07-24T10:54:12.302Z,1004.38
2018-07-24T10:55:12.304Z,1004.38
2018-07-24T10:56:12.300Z,1004.37
2018-07-24T10:57:12.227Z,1004.40
2018-07-24T10:58:12.299Z,1004.35
2018-07-24T10:59:12.185Z,1004.35
2018-07-24T11:00:12.289Z,1004.35
2018-07-24T11:01:12.225Z,1004.31
2018-07-24T11:02:12.211Z,1004.31
2018-07-24T11:03:12.273Z,1004.34
2018-07-24T11:04:12.140Z,1004.31
2018-07-24T11:05:12.214Z,1004.32
2018-07-24T11:06:12.267Z,1004.30
2018-07-24T11:07:12.175Z,1004.27
2018-07-24T11:08:12.205Z,1004.32
2018-07-24T11:09:12.161Z,1004.29
2018-07-24T11:10:12.225Z,1004.32
2018-07-24T11:11:12.272Z,1004.30
2018-07-24T11:12:12.214Z,1004.25
2018-07-24T11:13:12.277Z,1004.26
2018-07-24T11:14:12.241Z,1004.24
2018-07-24T11:15:12.277Z,1004.23
2018-07-24T11:16:12.214Z,1004.25
2018-07-24T11:17:12.217Z,1004.25
2018-07-24T11:18:12.284Z,1004.21
2018-07-24T11:19:12.213Z,1004.22
2018-07-24T11:20:12.285Z,1004.18
2018-07-24T11:21:12.216Z,1004.13
2018-07-24T11:22:12.349Z,1004.11
2018-07-24T11:23:12.371Z,1004.11
2018-07-24T11:24:12.316Z,1004.08
2018-07-24T11:25:12.319Z,1004.08
2018-07-24T11:26:12.266Z,1004.11
2018-07-24T11:27:12.318Z,1004.09
2018-07-24T11:28:12.230Z,1004.06
2018-07-24T11:29:12.244Z,1004.08
2018-07-24T11:30:12.255Z,1004.09
2018-07-24T11:31:12.319Z,1004.06
2018-07-24T11:32:12.237Z,1004.07
2018-07-24T11:33:12.216Z,1004.06
2018-07-24T11:34:12.258Z,1004.02
2018-07-24T11:35:12.225Z,1004.02
2018-07-24T11:36:12.396Z,1004.03
2018-07-24T11:37:12.225Z,1004.02
2018-07-24T11:38:12.277Z,1004.00
2018-07-24T11:39:12.277Z,1003.94
2018-07-24T11:40:12.273Z,1003.97
2018-07-24T11:41:12.285Z,1003.96
2018-07-24T11:42:12.252Z,1003.91
2018-07-24T11:43:12.296Z,1003.92
2018-07-24T11:44:12.300Z,1003.91
2018-07-24T11:45:12.328Z,1003.92
2018-07-24T11:46:12.232Z,1003.91
2018-07-24T11:47:12.304Z,1003.90
2018-07-24T11:48:12.235Z,1003.89
2018-07-24T11:49:12.304Z,1003.85
2018-07-24T11:50:12.235Z,1003.84
2018-07-24T11:51:12.240Z,1003.80
2018-07-24T11:52:12.295Z,1003.80
2018-07-24T11:53:12.334Z,1003.80
2018-07-24T11:54:12.282Z,1003.80
2018-07-24T11:55:12.211Z,1003.79
2018-07-24T11:56:12.270Z,1003.80
2018-07-24T11:57:12.337Z,1003.77
2018-07-24T11:58:12.342Z,1003.79
2018-07-24T11:59:12.333Z,1003.78
2018-07-24T12:00:12.335Z,1003.72
2018-07-24T12:01:12.217Z,1003.70
2018-07-24T12:02:12.245Z,1003.69
2018-07-24T12:03:12.248Z,1003.72
2018-07-24T12:04:12.242Z,1003.70
2018-07-24T12:05:12.316Z,1003.66